sensor_id;sensor_type;location;lat;lon;timestamp;temperature;humidity
19248;DHT22;9758;48.640;8.148;2023-03-14T00:10:19;13.00;61.70
19248;DHT22;9758;48.640;8.148;2023-03-14T00:13:10;13.10;61.80
19248;DHT22;9758;48.640;8.148;2023-03-14T00:15:53;13.10;61.60
19248;DHT22;9758;48.640;8.148;2023-03-14T00:18:42;13.10;62.60
19248;DHT22;9758;48.640;8.148;2023-03-14T00:21:41;13.10;62.00
19248;DHT22;9758;48.640;8.148;2023-03-14T00:27:45;13.10;62.20
19248;DHT22;9758;48.640;8.148;2023-03-14T00:30:54;13.20;61.40
19248;DHT22;9758;48.640;8.148;2023-03-14T00:33:51;13.20;61.40
19248;DHT22;9758;48.640;8.148;2023-03-14T00:36:34;13.20;61.40
19248;DHT22;9758;48.640;8.148;2023-03-14T00:39:44;13.20;61.70
19248;DHT22;9758;48.640;8.148;2023-03-14T00:59:12;13.00;61.90
19248;DHT22;9758;48.640;8.148;2023-03-14T01:02:32;13.00;62.50
19248;DHT22;9758;48.640;8.148;2023-03-14T01:05:19;13.00;62.40
19248;DHT22;9758;48.640;8.148;2023-03-14T01:11:25;13.10;61.90
19248;DHT22;9758;48.640;8.148;2023-03-14T01:14:34;13.10;61.90
19248;DHT22;9758;48.640;8.148;2023-03-14T01:17:26;13.10;62.10
19248;DHT22;9758;48.640;8.148;2023-03-14T01:20:11;13.00;61.90
19248;DHT22;9758;48.640;8.148;2023-03-14T01:22:56;13.00;61.70
19248;DHT22;9758;48.640;8.148;2023-03-14T01:25:42;13.10;62.00
19248;DHT22;9758;48.640;8.148;2023-03-14T01:28:27;13.00;61.60
19248;DHT22;9758;48.640;8.148;2023-03-14T01:57:19;12.90;61.50
19248;DHT22;9758;48.640;8.148;2023-03-14T02:00:14;12.80;61.60
19248;DHT22;9758;48.640;8.148;2023-03-14T02:03:35;12.80;61.40
19248;DHT22;9758;48.640;8.148;2023-03-14T02:06:24;12.80;61.60
19248;DHT22;9758;48.640;8.148;2023-03-14T02:09:16;12.80;61.60
19248;DHT22;9758;48.640;8.148;2023-03-14T02:12:06;12.90;61.30
19248;DHT22;9758;48.640;8.148;2023-03-14T02:48:05;12.80;61.40
19248;DHT22;9758;48.640;8.148;2023-03-14T02:50:53;12.80;61.10
19248;DHT22;9758;48.640;8.148;2023-03-14T02:53:37;12.80;60.70
19248;DHT22;9758;48.640;8.148;2023-03-14T02:56:25;12.80;60.80
19248;DHT22;9758;48.640;8.148;2023-03-14T02:59:51;12.90;60.80
19248;DHT22;9758;48.640;8.148;2023-03-14T03:06:20;12.90;60.40
19248;DHT22;9758;48.640;8.148;2023-03-14T03:09:27;12.90;60.10
19248;DHT22;9758;48.640;8.148;2023-03-14T03:12:20;12.90;60.00
19248;DHT22;9758;48.640;8.148;2023-03-14T03:15:25;12.90;59.70
19248;DHT22;9758;48.640;8.148;2023-03-14T03:18:10;12.90;59.70
19248;DHT22;9758;48.640;8.148;2023-03-14T03:20:55;12.90;59.50
19248;DHT22;9758;48.640;8.148;2023-03-14T03:27:20;12.90;59.50
19248;DHT22;9758;48.640;8.148;2023-03-14T03:30:10;12.90;59.40
19248;DHT22;9758;48.640;8.148;2023-03-14T03:33:00;13.00;59.40
19248;DHT22;9758;48.640;8.148;2023-03-14T03:35:45;13.00;59.00
19248;DHT22;9758;48.640;8.148;2023-03-14T03:38:47;12.90;58.80
19248;DHT22;9758;48.640;8.148;2023-03-14T03:41:32;12.90;59.00
19248;DHT22;9758;48.640;8.148;2023-03-14T03:44:54;12.90;59.00
19248;DHT22;9758;48.640;8.148;2023-03-14T03:48:06;12.90;58.90
19248;DHT22;9758;48.640;8.148;2023-03-14T03:50:51;12.90;58.80
19248;DHT22;9758;48.640;8.148;2023-03-14T03:53:40;12.90;58.90
19248;DHT22;9758;48.640;8.148;2023-03-14T03:56:45;12.90;58.60
19248;DHT22;9758;48.640;8.148;2023-03-14T03:59:31;12.90;58.60
19248;DHT22;9758;48.640;8.148;2023-03-14T04:02:21;12.90;58.70
19248;DHT22;9758;48.640;8.148;2023-03-14T04:05:04;12.90;58.70
19248;DHT22;9758;48.640;8.148;2023-03-14T04:10:54;12.90;58.00
19248;DHT22;9758;48.640;8.148;2023-03-14T04:13:50;12.90;58.40
19248;DHT22;9758;48.640;8.148;2023-03-14T04:20:15;12.90;58.60
19248;DHT22;9758;48.640;8.148;2023-03-14T04:23:22;12.90;58.50
19248;DHT22;9758;48.640;8.148;2023-03-14T04:26:09;13.00;58.50
19248;DHT22;9758;48.640;8.148;2023-03-14T04:29:17;13.00;58.40
19248;DHT22;9758;48.640;8.148;2023-03-14T04:32:05;13.00;58.30
19248;DHT22;9758;48.640;8.148;2023-03-14T04:34:53;13.00;58.20
19248;DHT22;9758;48.640;8.148;2023-03-14T05:00:37;12.90;58.00
19248;DHT22;9758;48.640;8.148;2023-03-14T05:03:45;12.90;57.80
19248;DHT22;9758;48.640;8.148;2023-03-14T05:06:48;12.90;57.90
19248;DHT22;9758;48.640;8.148;2023-03-14T05:09:54;12.90;57.90
19248;DHT22;9758;48.640;8.148;2023-03-14T05:12:33;12.90;57.80
19248;DHT22;9758;48.640;8.148;2023-03-14T05:31:59;12.90;57.70
19248;DHT22;9758;48.640;8.148;2023-03-14T05:35:11;12.90;57.70
19248;DHT22;9758;48.640;8.148;2023-03-14T05:37:56;12.90;58.00
19248;DHT22;9758;48.640;8.148;2023-03-14T05:40:44;12.90;57.70
19248;DHT22;9758;48.640;8.148;2023-03-14T05:43:28;12.90;57.70
19248;DHT22;9758;48.640;8.148;2023-03-14T05:46:21;12.90;57.50
19248;DHT22;9758;48.640;8.148;2023-03-14T05:49:51;13.00;57.60
19248;DHT22;9758;48.640;8.148;2023-03-14T05:53:09;13.00;57.60
19248;DHT22;9758;48.640;8.148;2023-03-14T05:56:16;13.00;57.40
19248;DHT22;9758;48.640;8.148;2023-03-14T05:59:09;12.90;57.40
19248;DHT22;9758;48.640;8.148;2023-03-14T06:02:04;12.90;57.40
19248;DHT22;9758;48.640;8.148;2023-03-14T06:15:36;12.80;57.20
19248;DHT22;9758;48.640;8.148;2023-03-14T06:18:40;12.80;57.40
19248;DHT22;9758;48.640;8.148;2023-03-14T06:22:00;12.80;57.40
19248;DHT22;9758;48.640;8.148;2023-03-14T06:25:01;12.80;57.30
19248;DHT22;9758;48.640;8.148;2023-03-14T06:28:06;12.80;57.30
19248;DHT22;9758;48.640;8.148;2023-03-14T06:31:11;12.80;57.40
19248;DHT22;9758;48.640;8.148;2023-03-14T06:34:17;12.80;57.30
19248;DHT22;9758;48.640;8.148;2023-03-14T06:37:01;12.70;57.30
19248;DHT22;9758;48.640;8.148;2023-03-14T06:42:53;12.80;57.30
19248;DHT22;9758;48.640;8.148;2023-03-14T06:52:37;12.90;57.30
19248;DHT22;9758;48.640;8.148;2023-03-14T06:55:20;12.90;57.30
19248;DHT22;9758;48.640;8.148;2023-03-14T06:58:06;13.00;57.30
19248;DHT22;9758;48.640;8.148;2023-03-14T07:01:17;13.00;57.10
19248;DHT22;9758;48.640;8.148;2023-03-14T07:04:07;13.00;57.00
19248;DHT22;9758;48.640;8.148;2023-03-14T07:06:56;13.10;57.20
19248;DHT22;9758;48.640;8.148;2023-03-14T07:10:09;13.10;56.90
19248;DHT22;9758;48.640;8.148;2023-03-14T07:13:19;13.10;56.80
19248;DHT22;9758;48.640;8.148;2023-03-14T07:16:34;13.10;56.80
19248;DHT22;9758;48.640;8.148;2023-03-14T07:19:52;13.10;56.80
19248;DHT22;9758;48.640;8.148;2023-03-14T07:22:56;13.20;56.70
19248;DHT22;9758;48.640;8.148;2023-03-14T07:31:59;13.20;56.60
19248;DHT22;9758;48.640;8.148;2023-03-14T07:34:46;13.20;56.60
19248;DHT22;9758;48.640;8.148;2023-03-14T07:37:31;13.30;56.60
19248;DHT22;9758;48.640;8.148;2023-03-14T07:40:14;13.30;56.40
19248;DHT22;9758;48.640;8.148;2023-03-14T07:42:56;13.30;56.40
19248;DHT22;9758;48.640;8.148;2023-03-14T07:45:58;13.40;56.50
19248;DHT22;9758;48.640;8.148;2023-03-14T07:49:14;13.40;56.30
19248;DHT22;9758;48.640;8.148;2023-03-14T07:51:51;13.50;56.30
19248;DHT22;9758;48.640;8.148;2023-03-14T07:54:41;13.50;56.30
19248;DHT22;9758;48.640;8.148;2023-03-14T07:57:24;13.50;56.20
19248;DHT22;9758;48.640;8.148;2023-03-14T07:59:55;13.50;56.20
19248;DHT22;9758;48.640;8.148;2023-03-14T08:02:24;13.50;56.10
19248;DHT22;9758;48.640;8.148;2023-03-14T08:04:52;13.60;56.30
19248;DHT22;9758;48.640;8.148;2023-03-14T08:07:32;13.60;56.20
19248;DHT22;9758;48.640;8.148;2023-03-14T08:10:00;13.60;56.20
19248;DHT22;9758;48.640;8.148;2023-03-14T08:12:29;13.60;56.10
19248;DHT22;9758;48.640;8.148;2023-03-14T08:14:57;13.70;56.10
19248;DHT22;9758;48.640;8.148;2023-03-14T08:17:52;13.70;56.00
19248;DHT22;9758;48.640;8.148;2023-03-14T08:20:23;13.70;56.00
19248;DHT22;9758;48.640;8.148;2023-03-14T08:22:55;13.80;56.00
19248;DHT22;9758;48.640;8.148;2023-03-14T08:25:26;13.80;56.00
19248;DHT22;9758;48.640;8.148;2023-03-14T08:27:56;13.80;55.90
19248;DHT22;9758;48.640;8.148;2023-03-14T08:30:24;13.80;55.80
19248;DHT22;9758;48.640;8.148;2023-03-14T08:32:56;13.80;55.70
19248;DHT22;9758;48.640;8.148;2023-03-14T08:35:39;13.80;55.90
19248;DHT22;9758;48.640;8.148;2023-03-14T08:38:13;13.80;55.60
19248;DHT22;9758;48.640;8.148;2023-03-14T08:40:54;13.80;55.80
19248;DHT22;9758;48.640;8.148;2023-03-14T08:43:51;13.80;55.80
19248;DHT22;9758;48.640;8.148;2023-03-14T08:46:58;13.80;55.90
19248;DHT22;9758;48.640;8.148;2023-03-14T08:50:18;13.80;55.90
19248;DHT22;9758;48.640;8.148;2023-03-14T08:53:12;13.90;55.80
19248;DHT22;9758;48.640;8.148;2023-03-14T08:56:19;13.90;55.70
19248;DHT22;9758;48.640;8.148;2023-03-14T08:59:23;13.90;55.80
19248;DHT22;9758;48.640;8.148;2023-03-14T09:02:24;13.80;55.80
19248;DHT22;9758;48.640;8.148;2023-03-14T09:08:10;13.80;55.80
19248;DHT22;9758;48.640;8.148;2023-03-14T09:10:54;13.90;55.80
19248;DHT22;9758;48.640;8.148;2023-03-14T09:13:42;13.90;55.80
19248;DHT22;9758;48.640;8.148;2023-03-14T09:16:49;13.90;55.80
19248;DHT22;9758;48.640;8.148;2023-03-14T09:19:25;13.90;55.70
19248;DHT22;9758;48.640;8.148;2023-03-14T09:22:38;13.90;55.60
19248;DHT22;9758;48.640;8.148;2023-03-14T09:25:41;13.90;55.60
19248;DHT22;9758;48.640;8.148;2023-03-14T09:28:30;14.00;55.60
19248;DHT22;9758;48.640;8.148;2023-03-14T09:31:31;14.00;55.50
19248;DHT22;9758;48.640;8.148;2023-03-14T09:34:30;14.00;55.40
19248;DHT22;9758;48.640;8.148;2023-03-14T09:37:19;14.00;55.10
19248;DHT22;9758;48.640;8.148;2023-03-14T09:39:58;14.00;55.40
19248;DHT22;9758;48.640;8.148;2023-03-14T09:42:48;13.90;55.10
19248;DHT22;9758;48.640;8.148;2023-03-14T09:45:25;13.90;55.30
19248;DHT22;9758;48.640;8.148;2023-03-14T09:48:14;13.90;55.60
19248;DHT22;9758;48.640;8.148;2023-03-14T09:51:11;13.90;55.70
19248;DHT22;9758;48.640;8.148;2023-03-14T09:53:55;14.00;55.50
19248;DHT22;9758;48.640;8.148;2023-03-14T10:00:07;13.90;55.50
19248;DHT22;9758;48.640;8.148;2023-03-14T10:03:09;13.90;55.60
19248;DHT22;9758;48.640;8.148;2023-03-14T10:05:53;13.80;55.60
19248;DHT22;9758;48.640;8.148;2023-03-14T10:08:40;13.80;55.70
19248;DHT22;9758;48.640;8.148;2023-03-14T10:11:34;13.70;55.80
19248;DHT22;9758;48.640;8.148;2023-03-14T10:14:31;13.60;55.90
19248;DHT22;9758;48.640;8.148;2023-03-14T10:17:19;13.50;56.00
19248;DHT22;9758;48.640;8.148;2023-03-14T10:20:14;13.40;56.10
19248;DHT22;9758;48.640;8.148;2023-03-14T10:23:24;13.30;56.30
19248;DHT22;9758;48.640;8.148;2023-03-14T10:26:23;13.30;56.60
19248;DHT22;9758;48.640;8.148;2023-03-14T10:29:13;13.30;56.70
19248;DHT22;9758;48.640;8.148;2023-03-14T10:32:05;13.20;56.60
19248;DHT22;9758;48.640;8.148;2023-03-14T10:35:08;13.20;56.60
19248;DHT22;9758;48.640;8.148;2023-03-14T10:37:59;13.30;56.70
19248;DHT22;9758;48.640;8.148;2023-03-14T10:41:00;13.20;56.70
19248;DHT22;9758;48.640;8.148;2023-03-14T10:43:44;13.20;56.70
19248;DHT22;9758;48.640;8.148;2023-03-14T10:46:41;13.20;56.80
19248;DHT22;9758;48.640;8.148;2023-03-14T10:50:21;13.20;56.70
19248;DHT22;9758;48.640;8.148;2023-03-14T10:53:11;13.20;56.70
19248;DHT22;9758;48.640;8.148;2023-03-14T10:56:02;13.20;56.80
19248;DHT22;9758;48.640;8.148;2023-03-14T10:58:47;13.10;56.80
19248;DHT22;9758;48.640;8.148;2023-03-14T11:01:38;13.10;56.90
19248;DHT22;9758;48.640;8.148;2023-03-14T11:04:40;13.00;56.90
19248;DHT22;9758;48.640;8.148;2023-03-14T11:07:29;13.00;56.90
19248;DHT22;9758;48.640;8.148;2023-03-14T11:10:28;13.00;57.00
19248;DHT22;9758;48.640;8.148;2023-03-14T11:13:16;12.90;57.20
19248;DHT22;9758;48.640;8.148;2023-03-14T11:16:08;12.80;57.50
19248;DHT22;9758;48.640;8.148;2023-03-14T11:19:23;12.60;57.50
19248;DHT22;9758;48.640;8.148;2023-03-14T11:22:23;12.50;57.90
19248;DHT22;9758;48.640;8.148;2023-03-14T11:25:18;12.30;58.00
19248;DHT22;9758;48.640;8.148;2023-03-14T11:31:45;12.00;58.60
19248;DHT22;9758;48.640;8.148;2023-03-14T11:34:32;11.90;57.90
19248;DHT22;9758;48.640;8.148;2023-03-14T11:37:27;11.80;58.00
19248;DHT22;9758;48.640;8.148;2023-03-14T11:43:24;11.80;58.20
19248;DHT22;9758;48.640;8.148;2023-03-14T11:46:15;11.80;57.70
19248;DHT22;9758;48.640;8.148;2023-03-14T11:55:54;11.90;57.40
19248;DHT22;9758;48.640;8.148;2023-03-14T11:59:03;12.00;56.90
19248;DHT22;9758;48.640;8.148;2023-03-14T12:02:10;12.10;56.20
19248;DHT22;9758;48.640;8.148;2023-03-14T12:08:42;12.30;56.60
19248;DHT22;9758;48.640;8.148;2023-03-14T12:14:59;12.10;54.80
19248;DHT22;9758;48.640;8.148;2023-03-14T12:17:48;12.10;54.10
19248;DHT22;9758;48.640;8.148;2023-03-14T12:20:45;12.00;54.90
19248;DHT22;9758;48.640;8.148;2023-03-14T12:23:57;12.10;55.20
19248;DHT22;9758;48.640;8.148;2023-03-14T12:26:58;12.10;53.90
19248;DHT22;9758;48.640;8.148;2023-03-14T12:33:44;11.90;53.40
19248;DHT22;9758;48.640;8.148;2023-03-14T12:37:02;11.70;53.60
19248;DHT22;9758;48.640;8.148;2023-03-14T12:40:22;11.70;53.70
19248;DHT22;9758;48.640;8.148;2023-03-14T12:43:27;11.70;53.90
19248;DHT22;9758;48.640;8.148;2023-03-14T12:46:25;11.80;53.50
19248;DHT22;9758;48.640;8.148;2023-03-14T12:55:48;11.80;51.90
19248;DHT22;9758;48.640;8.148;2023-03-14T12:58:43;11.60;52.00
19248;DHT22;9758;48.640;8.148;2023-03-14T13:01:40;11.50;53.00
19248;DHT22;9758;48.640;8.148;2023-03-14T13:04:52;11.50;52.20
19248;DHT22;9758;48.640;8.148;2023-03-14T13:08:08;11.40;52.20
19248;DHT22;9758;48.640;8.148;2023-03-14T13:17:43;11.40;51.30
19248;DHT22;9758;48.640;8.148;2023-03-14T13:20:30;11.40;52.50
19248;DHT22;9758;48.640;8.148;2023-03-14T13:23:25;11.40;52.50
19248;DHT22;9758;48.640;8.148;2023-03-14T13:26:22;11.40;51.10
19248;DHT22;9758;48.640;8.148;2023-03-14T13:29:15;11.40;52.60
19248;DHT22;9758;48.640;8.148;2023-03-14T13:48:07;11.40;49.40
19248;DHT22;9758;48.640;8.148;2023-03-14T13:50:51;11.40;49.30
19248;DHT22;9758;48.640;8.148;2023-03-14T13:53:48;11.40;50.50
19248;DHT22;9758;48.640;8.148;2023-03-14T13:56:36;11.50;49.40
19248;DHT22;9758;48.640;8.148;2023-03-14T13:59:30;11.50;49.00
19248;DHT22;9758;48.640;8.148;2023-03-14T14:02:15;11.50;49.50
19248;DHT22;9758;48.640;8.148;2023-03-14T14:05:09;11.50;48.70
19248;DHT22;9758;48.640;8.148;2023-03-14T14:08:10;11.50;49.70
19248;DHT22;9758;48.640;8.148;2023-03-14T14:11:00;11.70;48.80
19248;DHT22;9758;48.640;8.148;2023-03-14T14:17:05;11.70;49.40
19248;DHT22;9758;48.640;8.148;2023-03-14T14:19:59;11.80;48.20
19248;DHT22;9758;48.640;8.148;2023-03-14T14:22:50;11.80;49.20
19248;DHT22;9758;48.640;8.148;2023-03-14T14:26:02;11.70;48.60
19248;DHT22;9758;48.640;8.148;2023-03-14T14:28:57;11.70;48.00
19248;DHT22;9758;48.640;8.148;2023-03-14T14:31:40;11.60;48.90
19248;DHT22;9758;48.640;8.148;2023-03-14T14:34:19;11.60;49.40
19248;DHT22;9758;48.640;8.148;2023-03-14T14:37:24;11.60;48.00
19248;DHT22;9758;48.640;8.148;2023-03-14T14:43:41;11.50;47.50
19248;DHT22;9758;48.640;8.148;2023-03-14T14:46:27;11.50;49.30
19248;DHT22;9758;48.640;8.148;2023-03-14T14:49:12;11.50;49.10
19248;DHT22;9758;48.640;8.148;2023-03-14T14:52:08;11.40;48.10
19248;DHT22;9758;48.640;8.148;2023-03-14T14:55:10;11.40;48.60
19248;DHT22;9758;48.640;8.148;2023-03-14T14:58:11;11.30;48.60
19248;DHT22;9758;48.640;8.148;2023-03-14T15:11:12;11.50;49.50
19248;DHT22;9758;48.640;8.148;2023-03-14T15:14:06;11.60;50.00
19248;DHT22;9758;48.640;8.148;2023-03-14T15:16:58;11.60;48.70
19248;DHT22;9758;48.640;8.148;2023-03-14T15:20:16;11.60;49.40
19248;DHT22;9758;48.640;8.148;2023-03-14T15:23:07;11.60;49.00
19248;DHT22;9758;48.640;8.148;2023-03-14T15:26:27;11.50;49.80
19248;DHT22;9758;48.640;8.148;2023-03-14T15:29:31;11.60;50.00
19248;DHT22;9758;48.640;8.148;2023-03-14T15:32:17;11.60;50.00
19248;DHT22;9758;48.640;8.148;2023-03-14T15:35:07;11.70;50.10
19248;DHT22;9758;48.640;8.148;2023-03-14T15:37:51;11.70;50.10
19248;DHT22;9758;48.640;8.148;2023-03-14T15:40:37;11.70;50.00
19248;DHT22;9758;48.640;8.148;2023-03-14T15:43:41;11.70;50.00
19248;DHT22;9758;48.640;8.148;2023-03-14T15:46:50;11.70;50.20
19248;DHT22;9758;48.640;8.148;2023-03-14T15:49:48;11.70;50.40
19248;DHT22;9758;48.640;8.148;2023-03-14T15:52:41;11.70;49.90
19248;DHT22;9758;48.640;8.148;2023-03-14T15:55:56;11.60;50.30
19248;DHT22;9758;48.640;8.148;2023-03-14T15:58:55;11.60;50.40
19248;DHT22;9758;48.640;8.148;2023-03-14T16:01:48;11.60;50.40
19248;DHT22;9758;48.640;8.148;2023-03-14T16:04:54;11.60;50.60
19248;DHT22;9758;48.640;8.148;2023-03-14T16:07:41;11.50;50.70
19248;DHT22;9758;48.640;8.148;2023-03-14T16:10:46;11.40;50.80
19248;DHT22;9758;48.640;8.148;2023-03-14T16:13:33;11.30;51.00
